createdAt,value
2018-06-22T00:00:14.134Z,11.8
2018-06-22T00:01:15.525Z,11.8
2018-06-22T00:02:16.909Z,11.9
2018-06-22T00:03:18.300Z,11.9
2018-06-22T00:04:19.692Z,11.9
2018-06-22T00:05:21.079Z,11.9
2018-06-22T00:06:22.471Z,11.8
2018-06-22T00:07:23.861Z,11.8
2018-06-22T00:08:25.251Z,11.9
2018-06-22T00:09:26.715Z,11.8
2018-06-22T00:10:28.123Z,11.9
2018-06-22T00:11:29.511Z,11.9
2018-06-22T00:12:30.899Z,11.9
2018-06-22T00:13:32.287Z,11.9
2018-06-22T00:14:33.682Z,11.9
2018-06-22T00:15:35.068Z,11.9
2018-06-22T00:16:36.459Z,11.9
2018-06-22T00:17:37.849Z,11.9
2018-06-22T00:18:39.236Z,11.9
2018-06-22T00:19:40.623Z,11.8
2018-06-22T00:20:42.016Z,11.9
2018-06-22T00:21:43.405Z,11.8
2018-06-22T00:22:44.796Z,11.8
2018-06-22T00:23:46.182Z,11.8
2018-06-22T00:24:47.570Z,11.8
2018-06-22T00:25:48.960Z,11.9
2018-06-22T00:26:50.347Z,11.7
2018-06-22T00:27:51.739Z,11.8
2018-06-22T00:28:53.138Z,11.8
2018-06-22T00:29:54.529Z,11.8
2018-06-22T00:30:55.916Z,11.8
2018-06-22T00:31:57.313Z,11.8
2018-06-22T00:32:58.700Z,11.9
2018-06-22T00:34:00.090Z,11.8
2018-06-22T00:35:01.483Z,11.8
2018-06-22T00:36:02.870Z,11.8
2018-06-22T00:37:04.262Z,11.9
2018-06-22T00:38:05.656Z,11.9
2018-06-22T00:39:07.045Z,11.9
2018-06-22T00:40:08.435Z,11.9
2018-06-22T00:41:09.824Z,12.0
2018-06-22T00:42:11.216Z,12.0
2018-06-22T00:43:12.604Z,12.0
2018-06-22T00:44:13.994Z,12.0
2018-06-22T00:45:15.382Z,12.1
2018-06-22T00:46:16.772Z,12.1
2018-06-22T00:47:18.161Z,12.0
2018-06-22T00:48:19.546Z,12.1
2018-06-22T00:49:20.941Z,12.0
2018-06-22T00:50:22.339Z,12.1
2018-06-22T00:51:23.729Z,12.1
2018-06-22T00:52:25.114Z,12.1
2018-06-22T00:53:26.502Z,12.2
2018-06-22T00:54:27.894Z,12.1
2018-06-22T00:55:29.287Z,12.1
2018-06-22T00:56:30.708Z,12.1
2018-06-22T00:57:32.112Z,12.1
2018-06-22T00:58:33.506Z,12.1
2018-06-22T00:59:34.891Z,12.1
2018-06-22T01:00:36.280Z,12.0
2018-06-22T01:01:37.667Z,12.0
2018-06-22T01:02:39.052Z,12.0
2018-06-22T01:03:40.445Z,12.1
2018-06-22T01:04:41.841Z,11.9
2018-06-22T01:05:43.227Z,12.0
2018-06-22T01:06:44.617Z,12.0
2018-06-22T01:07:46.012Z,12.0
2018-06-22T01:08:47.405Z,12.0
2018-06-22T01:09:48.789Z,12.1
2018-06-22T01:10:50.180Z,12.1
2018-06-22T01:11:51.571Z,12.0
2018-06-22T01:12:52.962Z,12.1
2018-06-22T01:13:54.349Z,12.1
2018-06-22T01:14:55.736Z,12.0
2018-06-22T01:15:57.123Z,12.0
2018-06-22T01:16:58.511Z,12.1
2018-06-22T01:17:59.901Z,12.1
2018-06-22T01:19:01.294Z,12.1
2018-06-22T01:20:02.683Z,12.1
2018-06-22T01:21:04.069Z,12.1
2018-06-22T01:22:05.456Z,12.1
2018-06-22T01:23:06.845Z,12.1
2018-06-22T01:24:08.234Z,12.0
2018-06-22T01:25:09.624Z,12.1
2018-06-22T01:26:11.017Z,12.1
2018-06-22T01:27:12.410Z,12.1
2018-06-22T01:28:13.799Z,12.0
2018-06-22T01:29:15.189Z,12.0
2018-06-22T01:30:16.580Z,12.1
2018-06-22T01:31:17.966Z,12.0
2018-06-22T01:32:19.362Z,12.0
2018-06-22T01:33:20.753Z,12.0
2018-06-22T01:34:22.143Z,11.9
2018-06-22T01:35:23.532Z,11.9
2018-06-22T01:36:24.923Z,12.0
2018-06-22T01:37:26.314Z,11.9
2018-06-22T01:38:27.701Z,11.9
2018-06-22T01:39:29.095Z,11.9
2018-06-22T01:40:30.487Z,11.9
2018-06-22T01:41:31.877Z,11.9
2018-06-22T01:42:33.269Z,11.8
2018-06-22T01:43:34.672Z,11.8
2018-06-22T01:44:36.073Z,11.7
2018-06-22T01:45:37.463Z,11.8
2018-06-22T01:46:38.855Z,11.7
2018-06-22T01:47:40.242Z,11.7
2018-06-22T01:48:41.635Z,11.7
2018-06-22T01:49:43.022Z,11.7
2018-06-22T01:50:44.412Z,11.8
2018-06-22T01:51:45.806Z,11.8
2018-06-22T01:52:47.197Z,11.7
2018-06-22T01:53:48.590Z,11.6
2018-06-22T01:54:49.979Z,11.6
2018-06-22T01:55:51.370Z,11.6
2018-06-22T01:56:52.756Z,11.7
2018-06-22T01:57:54.145Z,11.7
2018-06-22T01:58:55.533Z,11.7
2018-06-22T01:59:56.926Z,11.6
2018-06-22T02:00:58.316Z,11.6
2018-06-22T02:01:59.706Z,11.7
2018-06-22T02:03:01.101Z,11.6
2018-06-22T02:04:02.485Z,11.7
2018-06-22T02:05:03.875Z,11.8
2018-06-22T02:06:05.263Z,11.8
2018-06-22T02:07:06.656Z,11.6
2018-06-22T02:08:08.039Z,11.7
2018-06-22T02:09:09.436Z,11.7
2018-06-22T02:10:10.829Z,11.7
2018-06-22T02:11:12.217Z,11.7
2018-06-22T02:12:13.606Z,11.6
2018-06-22T02:13:15.002Z,11.6
2018-06-22T02:14:16.388Z,11.6
2018-06-22T02:15:17.782Z,11.7
2018-06-22T02:16:19.167Z,11.6
2018-06-22T02:17:20.561Z,11.6
2018-06-22T02:18:21.946Z,11.6
2018-06-22T02:19:23.334Z,11.7
2018-06-22T02:20:24.727Z,11.6
2018-06-22T02:21:26.116Z,11.7
2018-06-22T02:22:27.506Z,11.7
2018-06-22T02:23:28.900Z,11.6
2018-06-22T02:24:30.290Z,11.7
2018-06-22T02:25:31.677Z,11.6
2018-06-22T02:26:33.067Z,11.6
2018-06-22T02:27:34.457Z,11.7
2018-06-22T02:28:35.845Z,11.6
2018-06-22T02:29:37.236Z,11.7
2018-06-22T02:30:38.636Z,11.7
2018-06-22T02:31:40.093Z,11.6
2018-06-22T02:32:41.486Z,11.6
2018-06-22T02:33:42.876Z,11.5
2018-06-22T02:34:44.266Z,11.5
2018-06-22T02:35:45.655Z,11.6
2018-06-22T02:36:47.045Z,11.6
2018-06-22T02:37:48.436Z,11.6
2018-06-22T02:38:49.832Z,11.6
2018-06-22T02:39:51.218Z,11.6
2018-06-22T02:40:52.608Z,11.6
2018-06-22T02:41:54.037Z,11.6
2018-06-22T02:42:55.431Z,11.6
2018-06-22T02:43:56.837Z,11.6
2018-06-22T02:44:58.225Z,11.5
2018-06-22T02:45:59.610Z,11.5
2018-06-22T02:47:01.000Z,11.6
2018-06-22T02:48:02.389Z,11.5
2018-06-22T02:49:03.782Z,11.5
2018-06-22T02:50:05.169Z,11.5
2018-06-22T02:51:06.564Z,11.6
2018-06-22T02:52:07.951Z,11.5
2018-06-22T02:53:09.341Z,11.5
2018-06-22T02:54:10.726Z,11.5
2018-06-22T02:55:12.116Z,11.5
2018-06-22T02:56:13.505Z,11.5
2018-06-22T02:57:14.894Z,11.4
2018-06-22T02:58:16.294Z,11.5
2018-06-22T02:59:17.680Z,11.5
2018-06-22T03:00:19.070Z,11.5
2018-06-22T03:01:20.455Z,11.5
2018-06-22T03:02:21.849Z,11.4
2018-06-22T03:03:23.237Z,11.5
2018-06-22T03:04:24.628Z,11.5
2018-06-22T03:05:26.023Z,11.5
2018-06-22T03:06:27.415Z,11.5
2018-06-22T03:07:28.844Z,11.6
2018-06-22T03:08:30.229Z,11.5
2018-06-22T03:09:31.620Z,11.5
2018-06-22T03:10:33.015Z,11.5
2018-06-22T03:11:34.402Z,11.4
2018-06-22T03:12:35.791Z,11.4
2018-06-22T03:13:37.187Z,11.4
2018-06-22T03:14:38.578Z,11.4
2018-06-22T03:15:39.968Z,11.3
2018-06-22T03:16:41.358Z,11.3
2018-06-22T03:17:42.754Z,11.3
2018-06-22T03:18:44.179Z,11.3
2018-06-22T03:19:45.579Z,11.4
2018-06-22T03:20:46.971Z,11.3
2018-06-22T03:21:48.367Z,11.3
2018-06-22T03:22:49.753Z,11.3
2018-06-22T03:23:51.144Z,11.3
2018-06-22T03:24:52.561Z,11.3
2018-06-22T03:25:53.922Z,11.4
2018-06-22T03:26:55.317Z,11.3
2018-06-22T03:27:56.707Z,11.3
2018-06-22T03:28:58.101Z,11.3
2018-06-22T03:29:59.494Z,11.3
2018-06-22T03:31:00.882Z,11.3
2018-06-22T03:32:02.370Z,11.3
2018-06-22T03:33:03.666Z,11.3
2018-06-22T03:34:05.061Z,11.2
2018-06-22T03:35:06.452Z,11.3
2018-06-22T03:36:07.842Z,11.3
2018-06-22T03:37:09.234Z,11.4
2018-06-22T03:38:10.623Z,11.3
2018-06-22T03:39:12.015Z,11.3
2018-06-22T03:40:13.405Z,11.3
2018-06-22T03:41:14.798Z,11.3
2018-06-22T03:42:16.192Z,11.3
2018-06-22T03:43:17.585Z,11.3
2018-06-22T03:44:18.980Z,11.4
2018-06-22T03:45:20.366Z,11.4
2018-06-22T03:46:21.759Z,11.3
2018-06-22T03:47:23.148Z,11.4
2018-06-22T03:48:24.540Z,11.4
2018-06-22T03:49:25.936Z,11.4
2018-06-22T03:50:27.329Z,11.3
2018-06-22T03:51:28.724Z,11.4
2018-06-22T03:52:30.117Z,11.4
2018-06-22T03:53:31.504Z,11.4
2018-06-22T03:54:32.905Z,11.4
2018-06-22T03:55:34.285Z,11.4
2018-06-22T03:56:35.677Z,11.3
2018-06-22T03:57:37.071Z,11.2
2018-06-22T03:58:38.466Z,11.3
2018-06-22T03:59:39.861Z,11.3
2018-06-22T04:00:41.260Z,11.3
2018-06-22T04:01:43.190Z,11.3
2018-06-22T04:02:44.532Z,11.3
2018-06-22T04:03:45.934Z,11.3
2018-06-22T04:04:47.340Z,11.3
2018-06-22T04:05:48.744Z,11.3
2018-06-22T04:06:50.137Z,11.3
2018-06-22T04:07:51.528Z,11.3
2018-06-22T04:08:52.924Z,11.2
2018-06-22T04:09:54.309Z,11.3
2018-06-22T04:10:55.708Z,11.3
2018-06-22T04:11:57.101Z,11.3
2018-06-22T04:12:58.491Z,11.3
2018-06-22T04:13:59.880Z,11.3
2018-06-22T04:15:01.275Z,11.3
2018-06-22T04:16:02.668Z,11.3
2018-06-22T04:17:04.066Z,11.3
2018-06-22T04:18:05.455Z,11.3
2018-06-22T04:19:06.849Z,11.4
2018-06-22T04:20:08.239Z,11.4
2018-06-22T04:21:09.630Z,11.3
2018-06-22T04:22:11.024Z,11.4
2018-06-22T04:23:12.415Z,11.3
2018-06-22T04:24:13.814Z,11.3
2018-06-22T04:25:15.210Z,11.3
2018-06-22T04:26:16.601Z,11.3
2018-06-22T04:27:17.993Z,11.4
2018-06-22T04:28:19.390Z,11.3
2018-06-22T04:29:20.785Z,11.3
2018-06-22T04:30:22.175Z,11.3
2018-06-22T04:31:23.566Z,11.3
2018-06-22T04:32:24.958Z,11.3
2018-06-22T04:33:26.357Z,11.3
2018-06-22T04:34:27.751Z,11.3
2018-06-22T04:35:29.141Z,11.4
2018-06-22T04:36:30.540Z,11.4
2018-06-22T04:37:31.933Z,11.4
2018-06-22T04:38:33.335Z,11.5
2018-06-22T04:39:34.723Z,11.4
2018-06-22T04:40:36.118Z,11.5
2018-06-22T04:41:37.511Z,11.5
2018-06-22T04:42:38.902Z,11.4
2018-06-22T04:43:40.296Z,11.5
2018-06-22T04:44:41.687Z,11.4
2018-06-22T04:45:43.081Z,11.4
2018-06-22T04:46:44.477Z,11.5
2018-06-22T04:47:45.923Z,11.5
2018-06-22T04:48:47.262Z,11.5
2018-06-22T04:49:48.654Z,11.6
2018-06-22T04:50:50.048Z,11.6
2018-06-22T04:51:51.482Z,11.6
2018-06-22T04:52:53.738Z,11.6
2018-06-22T04:53:55.127Z,11.6
2018-06-22T04:54:56.519Z,11.6
2018-06-22T04:55:57.910Z,11.7
2018-06-22T04:56:59.302Z,11.7
2018-06-22T04:58:00.696Z,11.7
2018-06-22T04:59:02.093Z,11.7
2018-06-22T05:00:03.485Z,11.8
2018-06-22T05:01:04.879Z,11.8
2018-06-22T05:02:06.275Z,11.7
2018-06-22T05:03:07.661Z,11.8
2018-06-22T05:04:09.052Z,11.8
2018-06-22T05:05:10.443Z,11.9
2018-06-22T05:06:11.836Z,11.8
2018-06-22T05:07:13.225Z,12.0
2018-06-22T05:08:14.621Z,12.0
2018-06-22T05:09:16.070Z,12.0
2018-06-22T05:10:17.415Z,12.0
2018-06-22T05:11:18.800Z,12.1
2018-06-22T05:12:20.191Z,12.1
2018-06-22T05:13:21.581Z,12.2
2018-06-22T05:14:22.973Z,12.2
2018-06-22T05:15:24.364Z,12.2
2018-06-22T05:16:25.762Z,12.2
2018-06-22T05:17:27.144Z,12.1
2018-06-22T05:18:28.538Z,12.1
2018-06-22T05:19:29.931Z,12.1
2018-06-22T05:20:31.326Z,12.1
2018-06-22T05:21:32.719Z,12.1
2018-06-22T05:22:34.124Z,12.0
2018-06-22T05:23:35.533Z,12.2
2018-06-22T05:24:36.922Z,12.1
2018-06-22T05:25:38.320Z,12.2
2018-06-22T05:26:39.724Z,12.2
2018-06-22T05:27:41.114Z,12.2
2018-06-22T05:28:42.525Z,12.3
2018-06-22T05:29:43.905Z,12.3
2018-06-22T05:30:45.302Z,12.3
2018-06-22T05:31:46.695Z,12.4
2018-06-22T05:32:48.096Z,12.5
2018-06-22T05:33:49.487Z,12.5
2018-06-22T05:34:50.878Z,12.5
2018-06-22T05:35:52.330Z,12.5
2018-06-22T05:36:53.677Z,12.6
2018-06-22T05:37:55.139Z,12.7
2018-06-22T05:38:56.546Z,12.8
2018-06-22T05:39:57.940Z,12.7
2018-06-22T05:40:59.330Z,12.8
2018-06-22T05:42:00.729Z,12.8
2018-06-22T05:43:02.126Z,12.8
2018-06-22T05:44:03.519Z,12.9
2018-06-22T05:45:04.914Z,12.9
2018-06-22T05:46:06.304Z,12.9
2018-06-22T05:47:07.697Z,13.0
2018-06-22T05:48:09.092Z,13.0
2018-06-22T05:49:10.488Z,13.1
2018-06-22T05:50:11.884Z,13.1
2018-06-22T05:51:13.281Z,13.2
2018-06-22T05:52:14.679Z,13.1
2018-06-22T05:53:16.071Z,13.2
2018-06-22T05:54:17.465Z,13.3
2018-06-22T05:55:18.861Z,13.2
2018-06-22T05:56:20.268Z,13.2
2018-06-22T05:57:21.664Z,13.3
2018-06-22T05:58:23.074Z,13.3
2018-06-22T05:59:24.474Z,13.3
2018-06-22T06:00:25.866Z,13.2
2018-06-22T06:01:27.256Z,13.3
2018-06-22T06:02:28.655Z,13.3
2018-06-22T06:03:30.045Z,13.3
2018-06-22T06:04:31.439Z,13.4
2018-06-22T06:05:32.834Z,13.5
2018-06-22T06:06:34.229Z,13.4
2018-06-22T06:07:35.619Z,13.4
2018-06-22T06:08:37.013Z,13.5
2018-06-22T06:09:38.418Z,13.5
2018-06-22T06:10:39.811Z,13.4
2018-06-22T06:11:41.217Z,13.4
2018-06-22T06:12:42.635Z,13.4
2018-06-22T06:13:44.011Z,13.3
2018-06-22T06:14:45.401Z,13.3
2018-06-22T06:15:46.797Z,13.2
2018-06-22T06:16:48.192Z,13.3
2018-06-22T06:17:49.584Z,13.4
2018-06-22T06:18:50.982Z,13.3
2018-06-22T06:19:52.380Z,13.4
2018-06-22T06:20:53.778Z,13.4
2018-06-22T06:21:55.174Z,13.5
2018-06-22T06:22:56.567Z,13.4
2018-06-22T06:23:57.965Z,13.4
2018-06-22T06:24:59.381Z,13.4
2018-06-22T06:26:00.772Z,13.4
2018-06-22T06:27:02.169Z,13.5
2018-06-22T06:28:03.565Z,13.5
2018-06-22T06:29:04.956Z,13.5
2018-06-22T06:30:06.348Z,13.5
2018-06-22T06:31:07.739Z,13.6
2018-06-22T06:32:09.137Z,13.6
2018-06-22T06:33:10.530Z,13.6
2018-06-22T06:34:11.931Z,13.7
2018-06-22T06:35:13.323Z,13.7
2018-06-22T06:36:14.720Z,13.8
2018-06-22T06:37:16.108Z,13.8
2018-06-22T06:38:17.501Z,13.8
2018-06-22T06:39:18.918Z,13.9
2018-06-22T06:40:20.315Z,14.0
2018-06-22T06:41:21.713Z,14.0
2018-06-22T06:42:23.111Z,14.0
2018-06-22T06:43:24.510Z,14.2
2018-06-22T06:44:25.902Z,14.0
2018-06-22T06:45:27.297Z,14.0
2018-06-22T06:46:28.692Z,14.2
2018-06-22T06:47:30.091Z,14.2
2018-06-22T06:48:31.490Z,14.1
2018-06-22T06:49:32.948Z,14.2
2018-06-22T06:50:34.283Z,14.3
2018-06-22T06:51:35.678Z,14.4
2018-06-22T06:52:37.073Z,14.4
2018-06-22T06:53:38.469Z,14.5
2018-06-22T06:54:39.867Z,14.6
2018-06-22T06:55:41.262Z,14.7
2018-06-22T06:56:42.668Z,14.7
2018-06-22T06:57:44.054Z,14.7
2018-06-22T06:58:45.448Z,14.7
2018-06-22T06:59:46.843Z,14.6
2018-06-22T07:00:48.242Z,14.8
2018-06-22T07:01:49.637Z,14.7
2018-06-22T07:02:51.033Z,14.8
2018-06-22T07:03:52.431Z,14.7
2018-06-22T07:04:53.824Z,14.8
2018-06-22T07:05:55.219Z,14.7
2018-06-22T07:06:56.613Z,14.7
2018-06-22T07:07:58.009Z,14.7
2018-06-22T07:08:59.409Z,14.8
2018-06-22T07:10:00.804Z,14.9
2018-06-22T07:11:02.201Z,14.9
2018-06-22T07:12:03.630Z,14.9
2018-06-22T07:13:05.032Z,15.0
2018-06-22T07:14:06.427Z,15.0
2018-06-22T07:15:07.820Z,15.0
2018-06-22T07:16:09.219Z,15.0
2018-06-22T07:17:10.650Z,15.0
2018-06-22T07:18:12.013Z,15.1
2018-06-22T07:19:13.409Z,15.1
2018-06-22T07:20:14.803Z,15.1
2018-06-22T07:21:16.211Z,15.1
2018-06-22T07:22:17.605Z,15.1
2018-06-22T07:23:19.002Z,15.1
2018-06-22T07:24:20.399Z,15.1
2018-06-22T07:25:21.795Z,15.0
2018-06-22T07:26:23.187Z,15.1
2018-06-22T07:27:24.583Z,15.1
2018-06-22T07:28:25.981Z,15.1
2018-06-22T07:29:27.376Z,15.1
2018-06-22T07:30:28.774Z,15.2
2018-06-22T07:31:30.175Z,15.3
2018-06-22T07:32:31.572Z,15.4
2018-06-22T07:33:32.968Z,15.5
2018-06-22T07:34:34.369Z,15.5
2018-06-22T07:35:35.762Z,15.4
2018-06-22T07:36:37.156Z,15.3
2018-06-22T07:37:38.551Z,15.4
2018-06-22T07:38:39.951Z,15.5
2018-06-22T07:39:41.352Z,15.4
2018-06-22T07:40:42.743Z,15.5
2018-06-22T07:41:44.140Z,15.6
2018-06-22T07:42:45.534Z,15.6
2018-06-22T07:43:46.982Z,15.6
2018-06-22T07:44:48.326Z,15.6
2018-06-22T07:45:49.726Z,15.6
2018-06-22T07:46:51.126Z,15.6
2018-06-22T07:47:52.518Z,15.7
2018-06-22T07:48:53.913Z,15.6
2018-06-22T07:49:55.318Z,15.5
2018-06-22T07:50:56.701Z,15.4
2018-06-22T07:51:58.095Z,15.4
2018-06-22T07:52:59.489Z,15.3
2018-06-22T07:54:00.890Z,15.2
2018-06-22T07:55:02.329Z,15.1
2018-06-22T07:56:03.691Z,15.1
2018-06-22T07:57:05.088Z,15.0
2018-06-22T07:58:06.492Z,15.0
2018-06-22T07:59:07.966Z,15.0
2018-06-22T08:00:09.370Z,15.0
2018-06-22T08:01:10.763Z,15.0
2018-06-22T08:02:12.160Z,15.1
2018-06-22T08:03:13.555Z,15.1
2018-06-22T08:04:14.952Z,15.2
2018-06-22T08:05:16.345Z,15.2
2018-06-22T08:06:17.761Z,15.1
2018-06-22T08:07:19.138Z,15.2
2018-06-22T08:08:20.535Z,15.3
2018-06-22T08:09:21.928Z,15.3
2018-06-22T08:10:23.322Z,15.5
2018-06-22T08:11:24.723Z,15.5
2018-06-22T08:12:26.115Z,15.6
2018-06-22T08:13:27.512Z,15.5
2018-06-22T08:14:28.908Z,15.6
2018-06-22T08:15:30.304Z,15.7
2018-06-22T08:16:31.699Z,15.6
2018-06-22T08:17:33.121Z,15.7
2018-06-22T08:18:34.487Z,15.7
2018-06-22T08:19:35.886Z,15.6
2018-06-22T08:20:37.278Z,15.6
2018-06-22T08:21:38.680Z,15.6
2018-06-22T08:22:40.077Z,15.6
2018-06-22T08:23:41.509Z,15.6
2018-06-22T08:24:42.861Z,15.5
2018-06-22T08:25:44.255Z,15.6
2018-06-22T08:26:45.652Z,15.6
2018-06-22T08:27:47.044Z,15.5
2018-06-22T08:28:48.440Z,15.6
2018-06-22T08:29:49.839Z,15.5
2018-06-22T08:30:51.234Z,15.5
2018-06-22T08:31:52.628Z,15.5
2018-06-22T08:32:54.024Z,15.5
2018-06-22T08:33:55.421Z,15.4
2018-06-22T08:34:56.863Z,15.5
2018-06-22T08:35:58.216Z,15.5
2018-06-22T08:36:59.613Z,15.5
2018-06-22T08:38:01.007Z,15.6
2018-06-22T08:39:02.403Z,15.6
2018-06-22T08:40:03.801Z,15.7
2018-06-22T08:41:05.196Z,15.7
2018-06-22T08:42:06.629Z,15.7
2018-06-22T08:43:07.996Z,15.8
2018-06-22T08:44:09.393Z,15.8
2018-06-22T08:45:10.789Z,15.9
2018-06-22T08:46:12.188Z,15.9
2018-06-22T08:47:13.585Z,16.0
2018-06-22T08:48:14.983Z,15.9
2018-06-22T08:49:16.381Z,15.9
2018-06-22T08:50:17.779Z,16.0
2018-06-22T08:51:19.191Z,16.1
2018-06-22T08:52:20.579Z,16.1
2018-06-22T08:53:21.974Z,16.2
2018-06-22T08:54:23.369Z,16.3
2018-06-22T08:55:24.768Z,16.4
2018-06-22T08:56:26.170Z,16.5
2018-06-22T08:57:27.565Z,16.5
2018-06-22T08:58:28.967Z,16.3
2018-06-22T08:59:30.357Z,16.5
2018-06-22T09:00:31.753Z,16.5
2018-06-22T09:01:33.148Z,16.6
2018-06-22T09:02:34.545Z,16.7
2018-06-22T09:03:35.943Z,16.8
2018-06-22T09:04:37.339Z,16.9
2018-06-22T09:05:38.740Z,16.9
2018-06-22T09:06:40.140Z,16.9
2018-06-22T09:07:41.535Z,17.0
2018-06-22T09:08:42.931Z,17.0
2018-06-22T09:09:44.325Z,17.0
2018-06-22T09:10:45.728Z,17.0
2018-06-22T09:11:47.125Z,17.1
2018-06-22T09:12:48.523Z,16.9
2018-06-22T09:13:49.918Z,17.0
2018-06-22T09:14:51.313Z,16.9
2018-06-22T09:15:52.714Z,16.9
2018-06-22T09:16:54.109Z,17.0
2018-06-22T09:17:55.504Z,16.9
2018-06-22T09:18:56.899Z,16.8
2018-06-22T09:19:58.299Z,16.8
2018-06-22T09:20:59.694Z,16.6
2018-06-22T09:22:01.090Z,16.7
2018-06-22T09:23:02.485Z,16.7
2018-06-22T09:24:03.882Z,16.7
2018-06-22T09:25:05.283Z,16.6
2018-06-22T09:26:06.679Z,16.6
2018-06-22T09:27:08.073Z,16.6
2018-06-22T09:28:09.470Z,16.7
2018-06-22T09:29:10.864Z,16.7
2018-06-22T09:30:12.255Z,16.9
2018-06-22T09:31:13.688Z,16.8
2018-06-22T09:32:15.050Z,17.0
2018-06-22T09:33:16.471Z,17.2
2018-06-22T09:34:17.866Z,17.3
2018-06-22T09:35:19.268Z,17.7
2018-06-22T09:36:20.662Z,17.8
2018-06-22T09:37:22.059Z,17.8
2018-06-22T09:38:23.460Z,17.9
2018-06-22T09:39:24.859Z,17.8
2018-06-22T09:40:26.260Z,17.7
2018-06-22T09:41:27.683Z,17.4
2018-06-22T09:42:29.058Z,17.6
2018-06-22T09:43:30.450Z,17.5
2018-06-22T09:44:31.847Z,17.5
2018-06-22T09:45:33.243Z,17.4
2018-06-22T09:46:34.662Z,17.5
2018-06-22T09:47:36.061Z,17.5
2018-06-22T09:48:37.464Z,17.6
2018-06-22T09:49:38.863Z,17.6
2018-06-22T09:50:40.258Z,17.4
2018-06-22T09:51:41.655Z,17.4
2018-06-22T09:52:43.054Z,17.5
2018-06-22T09:53:44.450Z,17.6
2018-06-22T09:54:45.848Z,17.6
2018-06-22T09:55:47.251Z,17.5
2018-06-22T09:56:48.649Z,17.6
2018-06-22T09:57:50.045Z,17.9
2018-06-22T09:58:51.440Z,17.9
2018-06-22T09:59:52.833Z,17.9
2018-06-22T10:00:54.231Z,18.0
2018-06-22T10:01:55.633Z,18.1
2018-06-22T10:02:57.034Z,18.2
2018-06-22T10:03:58.427Z,18.1
2018-06-22T10:04:59.824Z,18.0
2018-06-22T10:06:01.284Z,18.0
2018-06-22T10:07:02.626Z,18.1
2018-06-22T10:08:04.028Z,18.3
2018-06-22T10:09:05.427Z,18.4
2018-06-22T10:10:06.830Z,18.5
2018-06-22T10:11:08.243Z,18.7
2018-06-22T10:12:09.640Z,18.6
2018-06-22T10:13:11.053Z,18.4
2018-06-22T10:14:12.449Z,18.3
2018-06-22T10:15:13.848Z,18.5
2018-06-22T10:16:15.248Z,18.4
2018-06-22T10:17:16.649Z,18.4
2018-06-22T10:18:18.047Z,18.4
2018-06-22T10:19:19.443Z,18.4
2018-06-22T10:20:20.897Z,18.4
2018-06-22T10:21:22.310Z,18.2
2018-06-22T10:22:23.717Z,18.3
2018-06-22T10:23:25.114Z,18.3
2018-06-22T10:24:26.512Z,18.1
2018-06-22T10:25:27.914Z,18.2
2018-06-22T10:26:29.310Z,18.1
2018-06-22T10:27:30.706Z,18.2
2018-06-22T10:28:32.105Z,18.4
2018-06-22T10:29:33.503Z,18.4
2018-06-22T10:30:34.905Z,18.3
2018-06-22T10:31:36.303Z,18.3
2018-06-22T10:32:37.700Z,18.2
2018-06-22T10:33:39.095Z,18.1
2018-06-22T10:34:40.494Z,17.9
2018-06-22T10:35:41.897Z,17.9
2018-06-22T10:36:43.288Z,17.9
2018-06-22T10:37:44.689Z,18.0
2018-06-22T10:38:46.087Z,17.9
2018-06-22T10:39:47.484Z,17.9
2018-06-22T10:40:48.880Z,17.9
2018-06-22T10:41:50.277Z,17.9
2018-06-22T10:42:51.676Z,17.8
2018-06-22T10:43:53.076Z,17.8
2018-06-22T10:44:54.474Z,17.9
2018-06-22T10:45:55.888Z,17.9
2018-06-22T10:46:57.270Z,17.9
2018-06-22T10:47:58.670Z,17.8
2018-06-22T10:49:00.063Z,17.9
2018-06-22T10:50:01.461Z,17.9
2018-06-22T10:51:02.856Z,17.9
2018-06-22T10:52:04.250Z,17.6
2018-06-22T10:53:05.653Z,17.6
2018-06-22T10:54:07.052Z,17.7
2018-06-22T10:55:08.445Z,17.8
2018-06-22T10:56:09.847Z,18.0
2018-06-22T10:57:11.242Z,18.2
2018-06-22T10:58:12.645Z,18.4
2018-06-22T10:59:14.044Z,18.6
2018-06-22T11:00:15.447Z,18.9
2018-06-22T11:01:16.843Z,19.1
2018-06-22T11:02:18.241Z,19.2
2018-06-22T11:03:19.642Z,19.1
2018-06-22T11:04:21.038Z,19.5
2018-06-22T11:05:22.438Z,19.6
2018-06-22T11:06:23.836Z,19.7
2018-06-22T11:07:25.360Z,19.9
2018-06-22T11:08:26.762Z,20.0
2018-06-22T11:09:28.160Z,19.9
2018-06-22T11:10:29.554Z,19.9
2018-06-22T11:11:30.953Z,20.0
2018-06-22T11:12:32.356Z,20.2
2018-06-22T11:13:33.765Z,20.6
2018-06-22T11:14:35.160Z,21.0
2018-06-22T11:15:36.558Z,20.7
2018-06-22T11:16:37.961Z,20.6
2018-06-22T11:17:39.358Z,20.7
2018-06-22T11:18:40.757Z,20.2
2018-06-22T11:19:42.157Z,19.8
2018-06-22T11:20:43.555Z,19.4
2018-06-22T11:21:44.956Z,19.1
2018-06-22T11:22:46.352Z,18.9
2018-06-22T11:23:47.750Z,18.7
2018-06-22T11:24:49.164Z,18.6
2018-06-22T11:25:50.542Z,18.6
2018-06-22T11:26:51.947Z,18.5
2018-06-22T11:27:53.343Z,18.4
2018-06-22T11:28:54.746Z,18.6
2018-06-22T11:29:56.144Z,18.8
2018-06-22T11:30:57.542Z,19.1
2018-06-22T11:31:58.939Z,19.3
2018-06-22T11:33:00.341Z,19.5
2018-06-22T11:34:01.742Z,19.3
2018-06-22T11:35:03.138Z,19.1
2018-06-22T11:36:04.560Z,19.0
2018-06-22T11:37:05.961Z,18.8
2018-06-22T11:38:07.359Z,18.9
2018-06-22T11:39:08.758Z,19.0
2018-06-22T11:40:10.159Z,19.0
2018-06-22T11:41:11.642Z,19.0
2018-06-22T11:42:12.987Z,19.1
2018-06-22T11:43:14.385Z,19.1
2018-06-22T11:44:15.787Z,19.4
2018-06-22T11:45:17.185Z,19.7
2018-06-22T11:46:18.586Z,19.8
2018-06-22T11:47:19.985Z,20.0
2018-06-22T11:48:21.388Z,20.4
2018-06-22T11:49:22.791Z,20.8
2018-06-22T11:50:24.194Z,21.0
2018-06-22T11:51:25.592Z,21.3
2018-06-22T11:52:26.992Z,21.6
2018-06-22T11:53:28.400Z,21.7
2018-06-22T11:54:29.826Z,21.9
2018-06-22T11:55:31.227Z,22.0
2018-06-22T11:56:32.630Z,22.0
2018-06-22T11:57:34.040Z,21.8
2018-06-22T11:58:35.438Z,21.5
2018-06-22T11:59:36.838Z,21.4
2018-06-22T12:00:38.259Z,21.7
2018-06-22T12:01:39.697Z,21.8
2018-06-22T12:02:41.050Z,21.5
2018-06-22T12:03:42.452Z,21.7
2018-06-22T12:04:43.874Z,21.9
2018-06-22T12:05:45.256Z,22.1
2018-06-22T12:06:46.662Z,22.5
2018-06-22T12:07:48.062Z,22.6
2018-06-22T12:08:49.470Z,22.5
2018-06-22T12:09:50.877Z,22.6
2018-06-22T12:10:52.276Z,22.7
2018-06-22T12:11:53.735Z,22.8
2018-06-22T12:12:55.141Z,23.0
2018-06-22T12:13:56.544Z,23.0
2018-06-22T12:14:57.944Z,23.4
2018-06-22T12:15:59.349Z,23.4
2018-06-22T12:17:00.750Z,23.3
2018-06-22T12:18:02.153Z,23.3
2018-06-22T12:19:03.619Z,23.3
2018-06-22T12:20:05.063Z,23.3
2018-06-22T12:21:06.462Z,23.4
2018-06-22T12:22:07.864Z,23.3
2018-06-22T12:23:09.270Z,23.2
2018-06-22T12:24:10.674Z,23.4
2018-06-22T12:25:12.079Z,23.1
2018-06-22T12:26:13.486Z,23.0
2018-06-22T12:27:14.886Z,22.7
2018-06-22T12:28:16.287Z,22.8
2018-06-22T12:29:17.690Z,22.9
2018-06-22T12:30:19.097Z,23.2
2018-06-22T12:31:20.499Z,22.9
2018-06-22T12:32:21.903Z,22.6
2018-06-22T12:33:23.309Z,22.3
2018-06-22T12:34:24.708Z,22.1
2018-06-22T12:35:26.110Z,22.1
2018-06-22T12:36:27.514Z,22.4
2018-06-22T12:37:28.919Z,22.6
2018-06-22T12:38:30.323Z,22.7
2018-06-22T12:39:31.732Z,22.7
2018-06-22T12:40:33.248Z,22.4
2018-06-22T12:41:34.664Z,22.2
2018-06-22T12:42:36.067Z,22.4
2018-06-22T12:43:37.464Z,21.9
2018-06-22T12:44:38.870Z,21.8
2018-06-22T12:45:40.270Z,22.1
2018-06-22T12:46:41.674Z,22.2
2018-06-22T12:47:43.075Z,22.2
2018-06-22T12:48:44.484Z,22.5
2018-06-22T12:49:45.883Z,22.3
2018-06-22T12:50:47.284Z,22.6
2018-06-22T12:51:48.694Z,22.7
2018-06-22T12:52:50.093Z,22.6
2018-06-22T12:53:51.539Z,22.7
2018-06-22T12:54:52.904Z,22.7
2018-06-22T12:55:54.303Z,22.4
2018-06-22T12:56:55.700Z,22.5
2018-06-22T12:57:57.102Z,22.8
2018-06-22T12:58:58.505Z,22.9
2018-06-22T12:59:59.914Z,22.3
2018-06-22T13:01:01.316Z,21.8
2018-06-22T13:02:02.717Z,21.9
2018-06-22T13:03:04.126Z,22.0
2018-06-22T13:04:05.582Z,22.1
2018-06-22T13:05:06.934Z,22.3
2018-06-22T13:06:08.336Z,22.9
2018-06-22T13:07:09.738Z,22.8
2018-06-22T13:08:11.150Z,22.8
2018-06-22T13:09:12.602Z,22.8
2018-06-22T13:10:13.956Z,22.7
2018-06-22T13:11:15.362Z,22.4
2018-06-22T13:12:16.774Z,22.5
2018-06-22T13:13:18.169Z,22.5
2018-06-22T13:14:19.576Z,22.5
2018-06-22T13:15:21.001Z,22.7
2018-06-22T13:16:23.911Z,23.1
2018-06-22T13:17:25.311Z,23.3
2018-06-22T13:18:26.713Z,23.6
2018-06-22T13:19:28.119Z,23.8
2018-06-22T13:20:29.525Z,23.5
2018-06-22T13:21:30.943Z,23.6
2018-06-22T13:22:32.420Z,23.6
2018-06-22T13:23:34.193Z,23.6
2018-06-22T13:24:35.624Z,23.4
2018-06-22T13:25:37.024Z,23.2
2018-06-22T13:26:38.433Z,23.7
2018-06-22T13:27:39.834Z,23.9
2018-06-22T13:28:41.257Z,24.3
2018-06-22T13:29:42.659Z,24.5
2018-06-22T13:30:44.061Z,23.9
2018-06-22T13:31:45.460Z,23.7
2018-06-22T13:32:46.858Z,23.7
2018-06-22T13:33:48.261Z,23.4
2018-06-22T13:34:49.659Z,23.0
2018-06-22T13:35:51.064Z,23.0
2018-06-22T13:36:52.616Z,22.6